Terminal Aerodrome Forecast
Issued by NWS

Home | Current Version | Previous Version | Text Only | Print | Product List | Glossary On
Versions: 1 2 3 4 5 6 7 8 9 10 11 12 13 14 15 16 17 18
000
FTUS43 KILX 191748
TAFBMI
TAF
KBMI 191748Z 1918/2018 19010KT P6SM FEW250
     FM200200 15007KT 2SM BR FEW080
     FM200300 15007KT 1 1/2SM BR FEW020
     FM200400 15007KT 1/2SM FG SCT008
     FM200500 16007KT 1/4SM FG SCT003
     FM201000 15007KT 1/2SM FG BKN003
     FM201500 15010KT P6SM BKN003
     FM201700 16013KT P6SM BKN045=

USA.gov is the U.S. government's official web portal to all federal, state and local government web resources and services.